Flight Track Log - Related Links

Times and Time Zones

All times are in EDT time to prevent confusion due to time zone crossing. See the SWA1798 flight status page for this flight to view local times or setup timezone preferences in your user account.

Time Position Orientation Groundspeed Altitude Reporting Facility
EDT Latitude Longitude Course Direction KTS MPH feet Rate Location/Type
Sat 11:08:19 AM 28.4167 -81.3000 156° South 176 203 400  Level Orlando TRACON
Sat 11:09:32 AM 28.3500 -81.2667 156° South 229 264 2,500 1,937 Climbing Orlando TRACON
Sat 11:10:26 AM 28.3333 -81.2167 111° Southeast 261 300 4,500 2,842 Climbing Orlando TRACON
Sat 11:11:26 AM 28.4167 -81.2167 360° North 282 325 7,900 2,738 Climbing Orlando TRACON
Sat 11:13:06 AM 28.5547 -81.2525 347° North 312 359 11,800 2,400 Climbing Jacksonville Center
Sat 11:14:06 AM 28.6594 -81.2792 347° North 342 394 14,300 2,430 Climbing Jacksonville Center
Sat 11:15:07 AM 28.7683 -81.3081 347° North 375 432 16,700 2,300 Climbing Jacksonville Center
Sat 11:16:06 AM 28.8856 -81.3369 348° North 400 460 18,900 2,218 Climbing Jacksonville Center
Sat 11:17:06 AM 29.0047 -81.3661 348° North 419 482 21,100 2,200 Climbing Jacksonville Center
Sat 11:18:06 AM 29.1283 -81.3950 348° North 439 505 23,300 2,050 Climbing Jacksonville Center
Sat 11:19:06 AM 29.2558 -81.4072 355° North 451 519 25,200 1,850 Climbing Jacksonville Center
Sat 11:20:06 AM 29.3875 -81.4197 355° North 461 531 27,000 1,934 Climbing Jacksonville Center
Sat 11:21:07 AM 29.5111 -81.4536 347° North 461 531 29,100 1,800 Climbing Jacksonville Center
Sat 11:22:06 AM 29.6367 -81.4900 346° North 461 531 30,600 4,992 Climbing Jacksonville Center
Sat 11:23:06 AM 29.7644 -81.5264 346° North 461 531 39,000 1,800 Climbing Jacksonville Center
Sat 11:24:06 AM 29.8897 -81.5414 354° North 466 536 34,200 -1,600 Descending Jacksonville Center
Sat 11:25:06 AM 30.0211 -81.5228 North 466 536 35,800 1,438 Climbing Jacksonville Center
Sat 11:26:07 AM 30.1525 -81.5017 North 460 529 37,100 1,240 Climbing Jacksonville Center
Sat 11:27:07 AM 30.2797 -81.4831 North 460 529 38,300 950 Climbing Jacksonville Center
Sat 11:28:07 AM 30.4067 -81.4619 North 460 529 39,000 353 Climbing Jacksonville Center
Sat 11:29:06 AM 30.5319 -81.4456 North 460 529 39,000  Level Jacksonville Center
Sat 11:30:07 AM 30.6569 -81.4267 North 455 524 39,000  Level Jacksonville Center
Sat 11:31:07 AM 30.7819 -81.4078 North 455 524 39,000  Level Jacksonville Center
Sat 11:32:06 AM 30.9050 -81.3892 North 450 518 39,000  Level Jacksonville Center
Sat 11:33:07 AM 31.0278 -81.3725 North 445 512 39,000  Level Jacksonville Center
Sat 11:34:07 AM 31.1444 -81.3536 North 445 512 39,000  Level Jacksonville Center
Sat 11:35:06 AM 31.2697 -81.3369 North 450 518 39,000  Level Jacksonville Center
Sat 11:36:06 AM 31.3906 -81.3156 North 434 499 39,000  Level Jacksonville Center
Sat 11:37:07 AM 31.5133 -81.2964 North 441 507 39,000  Level Jacksonville Center
Sat 11:38:06 AM 31.6489 -81.2744 North 447 514 39,000  Level Jacksonville Center
Sat 11:39:07 AM 31.7739 -81.2553 North 447 514 39,000  Level Jacksonville Center
Sat 11:40:07 AM 31.8844 -81.2411 North 447 514 39,000  Level Jacksonville Center
Sat 11:41:07 AM 32.0114 -81.2217 North 447 514 39,000  Level Jacksonville Center
Sat 11:42:06 AM 32.1344 -81.1997 North 447 514 39,000  Level Jacksonville Center
Sat 11:43:07 AM 32.2483 -81.1289 28° Northeast 437 503 39,000  Level Jacksonville Center
Sat 11:44:06 AM 32.3578 -81.0481 32° Northeast 448 516 39,000  Level Jacksonville Center
Sat 11:45:06 AM 32.4672 -80.9694 31° Northeast 453 521 39,000  Level Jacksonville Center
Sat 11:46:07 AM 32.5786 -80.8858 32° Northeast 464 534 39,000  Level Jacksonville Center
Sat 11:47:06 AM 32.6900 -80.8069 31° Northeast 464 534 39,000  Level Jacksonville Center
Sat 11:48:06 AM 32.8014 -80.7250 32° Northeast 464 534 39,000  Level Jacksonville Center
Sat 11:49:06 AM 32.9106 -80.6458 31° Northeast 464 534 39,000  Level Jacksonville Center
Sat 11:50:06 AM 33.0239 -80.5661 31° Northeast 464 534 39,000  Level Jacksonville Center
Sat 11:51:07 AM 33.1353 -80.4864 31° Northeast 464 534 39,000  Level Jacksonville Center
Sat 11:52:06 AM 33.2586 -80.3961 31° Northeast 464 534 39,000  Level Jacksonville Center
Sat 11:53:06 AM 33.3656 -80.3136 33° Northeast 464 534 39,000  Level Jacksonville Center
Sat 11:54:07 AM 33.4744 -80.2333 32° Northeast 459 528 39,000  Level Jacksonville Center
Sat 11:55:06 AM 33.5772 -80.1553 32° Northeast 453 521 39,000  Level Jacksonville Center
Sat 11:56:07 AM 33.6861 -80.0744 32° Northeast 447 514 39,000  Level Jacksonville Center
Sat 11:57:07 AM 33.7925 -79.9911 33° Northeast 447 514 39,000  Level Jacksonville Center
Sat 11:58:07 AM 33.9014 -79.9100 32° Northeast 452 520 39,000  Level Jacksonville Center
Sat 11:59:06 AM 34.0100 -79.8286 32° Northeast 452 520 39,000  Level Jacksonville Center
Sat 12:00:53 PM 34.1806 -79.6961 33° Northeast 457 526 39,000  Level Washington Center
Sat 12:01:54 PM 34.3000 -79.6242 26° Northeast 463 533 39,000  Level Washington Center
Sat 12:02:52 PM 34.4167 -79.5619 24° Northeast 463 533 39,000  Level Washington Center
Sat 12:03:52 PM 34.5356 -79.4997 23° Northeast 457 526 39,000  Level Washington Center
Sat 12:04:53 PM 34.6547 -79.4347 24° Northeast 457 526 39,000  Level Washington Center
Sat 12:05:53 PM 34.7756 -79.3747 22° Northeast 457 526 39,000  Level Washington Center
Sat 12:06:54 PM 34.8944 -79.3092 24° Northeast 462 532 39,000  Level Washington Center
Sat 12:07:54 PM 35.0153 -79.2464 23° Northeast 462 532 39,000  Level Washington Center
Sat 12:08:53 PM 35.1361 -79.1833 23° Northeast 462 532 39,000  Level Washington Center
Sat 12:09:54 PM 35.2528 -79.1222 23° Northeast 462 532 39,000  Level Washington Center
Sat 12:10:52 PM 35.3736 -79.0589 23° Northeast 462 532 39,000  Level Washington Center
Sat 12:11:52 PM 35.4944 -78.9928 24° Northeast 462 532 39,000  Level Washington Center
Sat 12:12:53 PM 35.6256 -78.9242 23° Northeast 462 532 39,000  Level Washington Center
Sat 12:13:54 PM 35.7442 -78.8600 24° Northeast 462 532 39,000  Level Washington Center
Sat 12:14:52 PM 35.8650 -78.7933 24° Northeast 462 532 39,000  Level Washington Center
Sat 12:15:53 PM 35.9694 -78.7050 34° Northeast 457 526 39,000  Level Washington Center
Sat 12:16:54 PM 36.0528 -78.6289 36° Northeast 448 516 39,000  Level Washington Center
Sat 12:17:52 PM 36.1789 -78.5178 35° Northeast 454 522 39,000  Level Washington Center
Sat 12:18:52 PM 36.2792 -78.4236 37° Northeast 449 517 39,000  Level Washington Center
Sat 12:19:52 PM 36.3714 -78.3136 44° Northeast 454 522 39,000  Level Washington Center
Sat 12:20:53 PM 36.4636 -78.2006 45° Northeast 454 522 39,000  Level Washington Center
Sat 12:21:54 PM 36.5494 -78.0894 46° Northeast 454 522 39,000  Level Washington Center
Sat 12:22:52 PM 36.6394 -77.9758 45° Northeast 449 517 39,000  Level Washington Center
Sat 12:23:53 PM 36.7247 -77.8722 44° Northeast 455 524 39,000  Level Washington Center
Sat 12:24:53 PM 36.8289 -77.7742 37° Northeast 455 524 39,000  Level Washington Center
Sat 12:25:54 PM 36.9306 -77.6808 36° Northeast 460 529 39,000  Level Washington Center
Sat 12:26:52 PM 37.0386 -77.5875 35° Northeast 460 529 39,000  Level Washington Center
Sat 12:27:53 PM 37.1486 -77.4914 35° Northeast 471 542 39,000  Level Washington Center
Sat 12:28:54 PM 37.2544 -77.3950 36° Northeast 471 542 39,000  Level Washington Center
Sat 12:29:54 PM 37.3600 -77.3033 35° Northeast 466 536 39,000  Level Washington Center
Sat 12:30:52 PM 37.4783 -77.1986 35° Northeast 471 542 39,000  Level Washington Center
Sat 12:31:52 PM 37.5881 -77.0986 36° Northeast 476 548 39,000  Level Washington Center
Sat 12:32:53 PM 37.6936 -77.0011 36° Northeast 476 548 39,000  Level Washington Center
Sat 12:33:53 PM 37.8011 -76.9033 36° Northeast 476 548 39,000  Level Washington Center
Sat 12:34:54 PM 37.9042 -76.8078 36° Northeast 471 542 39,000  Level Washington Center
Sat 12:35:51 PM 38.0094 -76.7119 36° Northeast 466 536 39,000  Level Washington Center
Sat 12:36:52 PM 38.1147 -76.6131 36° Northeast 461 531 39,000  Level Washington Center
Sat 12:37:52 PM 38.2197 -76.5142 36° Northeast 461 531 39,000  Level Washington Center
Sat 12:38:53 PM 38.3119 -76.4333 35° Northeast 457 526 39,000  Level Washington Center
Sat 12:39:54 PM 38.4169 -76.3336 37° Northeast 457 526 39,000  Level Washington Center
Sat 12:40:52 PM 38.5197 -76.2364 36° Northeast 464 534 39,000  Level Washington Center
Sat 12:41:53 PM 38.6306 -76.1444 33° Northeast 459 528 39,000  Level Washington Center
Sat 12:42:53 PM 38.7331 -76.0442 37° Northeast 459 528 39,000  Level Washington Center
Sat 12:43:52 PM 38.8356 -75.9461 37° Northeast 459 528 39,000  Level Washington Center
Sat 12:44:52 PM 38.9422 -75.8453 36° Northeast 459 528 39,000  Level Washington Center
Sat 12:45:52 PM 39.0467 -75.7467 36° Northeast 459 528 39,000  Level Washington Center
Sat 12:46:53 PM 39.1508 -75.6478 36° Northeast 459 528 39,000  Level Washington Center
Sat 12:47:53 PM 39.2550 -75.5461 37° Northeast 459 528 39,000  Level Washington Center
Sat 12:48:54 PM 39.3614 -75.4467 36° Northeast 459 528 39,000  Level Washington Center
Sat 12:49:54 PM 39.4653 -75.3442 37° Northeast 459 528 39,000  Level Washington Center
Sat 12:50:54 PM 39.5714 -75.2442 36° Northeast 459 528 39,000  Level Washington Center
Sat 12:53:14 PM 39.8211 -74.9953 37° Northeast 471 542 39,000  Level New York Center
Sat 12:54:14 PM 39.9250 -74.8881 38° Northeast 477 549 39,000  Level New York Center
Sat 12:55:14 PM 40.0275 -74.7531 45° Northeast 477 549 39,000  Level New York Center
Sat 12:56:14 PM 40.1194 -74.6225 47° Northeast 472 543 39,000  Level New York Center
Sat 12:57:14 PM 40.2211 -74.5739 20° North 471 542 39,000  Level New York Center
Sat 12:58:14 PM 40.3664 -74.5275 14° North 461 531 39,000  Level New York Center
Sat 12:59:14 PM 40.4944 -74.4936 11° North 468 539 39,000  Level New York Center
Sat 01:01:05 PM 40.7261 -74.4228 13° North 467 537 39,000  Level Boston Center
Sat 01:02:02 PM 40.8539 -74.3856 12° North 473 544 39,000  Level Boston Center
Sat 01:03:03 PM 40.9983 -74.3514 10° North 473 544 39,000  Level Boston Center
Sat 01:04:03 PM 41.1281 -74.3111 13° North 473 544 39,000  Level Boston Center
Sat 01:05:04 PM 41.2581 -74.2736 12° North 467 537 39,000  Level Boston Center
Sat 01:06:05 PM 41.3711 -74.2325 15° North 461 531 39,000  Level Boston Center
Sat 01:07:05 PM 41.5053 -74.1919 13° North 475 547 39,000 -661 Level Boston Center
Sat 01:08:03 PM 41.6456 -74.1514 12° North 482 555 37,700 -2,067 Descending Boston Center
Sat 01:09:04 PM 41.7733 -74.1131 13° North 470 541 34,900 -2,430 Descending Boston Center
Sat 01:10:04 PM 41.8883 -74.0769 13° North 465 535 32,800 -1,537 Descending Boston Center
Sat 01:11:05 PM 42.0139 -74.0383 13° North 465 535 31,800 -1,412 Descending Boston Center
Sat 01:12:03 PM 42.1458 -73.9969 13° North 454 522 30,000 -1,916 Descending Boston Center
Sat 01:13:04 PM 42.2672 -73.9606 13° North 449 517 28,000 -1,934 Descending Boston Center
Sat 01:14:04 PM 42.3825 -73.9242 13° North 438 504 26,100 -1,450 Descending Boston Center
Sat 01:15:04 PM 42.4650 -73.8136 45° Northeast 401 461 25,100 -992 Descending Boston Center
Sat 01:16:05 PM 42.4939 -73.6481 77° East 398 458 24,100 -864 Descending Boston Center
Sat 01:17:02 PM 42.5247 -73.4853 76° East 414 476 23,400 -763 Descending Boston Center
Sat 01:18:03 PM 42.5575 -73.3139 75° East 427 491 22,600 -787 Descending Boston Center
Sat 01:19:04 PM 42.5878 -73.1536 76° East 448 516 21,800 -836 Descending Boston Center
Sat 01:20:05 PM 42.6219 -72.9931 74° East 437 503 20,900 -864 Descending Boston Center
Sat 01:21:02 PM 42.6519 -72.8381 75° East 428 493 20,100 -1,322 Descending Boston Center
Sat 01:22:03 PM 42.6814 -72.6858 75° East 421 484 18,300 -2,000 Descending Boston Center
Sat 01:23:05 PM 42.7089 -72.5361 76° East 407 468 16,000 -2,250 Descending Boston Center
Sat 01:24:03 PM 42.7358 -72.3919 76° East 396 456 13,800 -2,067 Descending Boston Center
Sat 01:25:04 PM 42.7628 -72.2533 75° East 390 449 11,900 -1,636 Descending Boston Center
Sat 01:26:04 PM 42.7856 -72.1261 76° East 356 410 10,500 -1,140 Descending Boston Center
Sat 01:27:05 PM 42.8061 -72.0100 76° East 323 372 9,600 -1,169 Descending Boston Center
Sat 01:28:02 PM 42.8200 -71.8994 80° East 303 349 8,200 -1,311 Descending Boston Center
Sat 01:29:04 PM 42.8133 -71.7919 95° East 290 334 7,000 -1,366 Descending Boston Center
Sat 01:30:05 PM 42.8044 -71.6875 97° East 290 334 5,400 -1,412 Descending Boston Center
Sat 01:31:03 PM 42.7994 -71.5856 94° East 284 327 4,200 -1,008 Descending Boston Center
Sat 01:32:04 PM 42.7903 -71.4953 98° East 250 288 3,400 -645 Descending Boston Center
Sat 01:33:04 PM 42.7917 -71.4131 89° East 228 262 2,900 -700 Descending Boston Center
Sat 01:34:04 PM 42.8225 -71.3728 44° Northeast 154 177 2,000 -645 Descending Boston Center
Sat 01:35:05 PM 42.8603 -71.3892 342° North 111 128 1,600 -595 Descending Boston Center
Sat 01:36:05 PM 42.8958 -71.4114 335° Northwest 122 140 800 -610 Descending Boston Center
Sat 01:37:03 PM 42.9231 -71.4278 336° Northwest 133 153 400 4,169 Descending Boston Center
Sat 01:38:03 PM 42.9547 -71.4500 333° Northwest 133 153 9,000 8,600 Climbing Boston Center

Login

Don't have an account? Register now (free) for customized features, flight alerts, and more!